Time;durP1;ratioP1;P1;durP2;ratioP2;P2;SDS_P1;SDS_P2;PMS_P1;PMS_P2;Temp;Humidity;BMP_temperature;BMP_pressure;BME280_temperature;BME280_humidity;BME280_pressure;Samples;Min_cycle;Max_cycle;Signal;HPM_P1;HPM_P2
2022/09/27 00:01:35;;;;;;;;;;;10.10;99.90;;;;;;5120880;27;20320;-55
2022/09/27 00:04:15;;;;;;;;;;;10.10;99.90;;;;;;5123484;27;20269;-57
2022/09/27 00:06:55;;;;;;;;;;;10.10;99.90;;;;;;5106241;27;19922;-57
2022/09/27 00:09:35;;;;;;;;;;;10.10;99.90;;;;;;5121366;27;19922;-57
2022/09/27 00:12:14;;;;;;;;;;;10.20;99.90;;;;;;5119105;27;19912;-57
2022/09/27 00:14:54;;;;;;;;;;;10.20;99.90;;;;;;5117377;27;19912;-57
2022/09/27 00:17:34;;;;;;;;;;;10.20;99.90;;;;;;5111197;27;20320;-57
2022/09/27 00:20:14;;;;;;;;;;;10.20;99.90;;;;;;5122579;27;20416;-57
2022/09/27 00:22:54;;;;;;;;;;;10.20;99.90;;;;;;5124647;27;19912;-57
2022/09/27 00:25:34;;;;;;;;;;;10.20;99.90;;;;;;5117756;27;19916;-57
2022/09/27 00:28:13;;;;;;;;;;;10.20;99.90;;;;;;5122949;27;19942;-57
2022/09/27 00:30:53;;;;;;;;;;;10.10;99.90;;;;;;5134622;27;20319;-57
2022/09/27 00:33:33;;;;;;;;;;;10.10;99.90;;;;;;5122803;27;20407;-57
2022/09/27 00:36:13;;;;;;;;;;;10.10;99.90;;;;;;5119463;27;19912;-57
2022/09/27 00:38:53;;;;;;;;;;;10.20;99.90;;;;;;5085984;27;19919;-57
2022/09/27 00:41:33;;;;;;;;;;;10.20;99.90;;;;;;5077542;27;19913;-57
2022/09/27 00:44:40;;;;;;;;;;;10.20;99.90;;;;;;5123300;27;19926;-55
2022/09/27 00:47:22;;;;;;;;;;;10.20;99.90;;;;;;5140747;27;19915;-57
2022/09/27 00:50:05;;;;;;;;;;;10.20;99.90;;;;;;5118320;27;19912;-57
2022/09/27 00:52:51;;;;;;;;;;;10.20;99.90;;;;;;5117691;27;19927;-57
2022/09/27 00:55:34;;;;;;;;;;;10.10;99.90;;;;;;5117750;27;20320;-57
2022/09/27 00:58:15;;;;;;;;;;;10.10;99.90;;;;;;5123934;27;20345;-57
2022/09/27 01:00:58;;;;;;;;;;;10.10;99.90;;;;;;5117333;27;19945;-57
2022/09/27 01:03:43;;;;;;;;;;;10.10;99.90;;;;;;5123968;27;19911;-57
2022/09/27 01:06:24;;;;;;;;;;;10.00;99.90;;;;;;5117882;27;19916;-57
2022/09/27 01:09:04;;;;;;;;;;;10.00;99.90;;;;;;5122405;27;20274;-57
2022/09/27 01:11:45;;;;;;;;;;;10.00;99.90;;;;;;5118227;27;20409;-57
2022/09/27 01:14:36;;;;;;;;;;;10.00;99.90;;;;;;5123344;27;19912;-57
2022/09/27 01:17:27;;;;;;;;;;;9.90;99.90;;;;;;5113860;27;19915;-57
2022/09/27 01:20:22;;;;;;;;;;;9.90;99.90;;;;;;5119234;27;19912;-57
2022/09/27 01:23:14;;;;;;;;;;;9.90;99.90;;;;;;5123105;27;20436;-57
2022/09/27 01:26:10;;;;;;;;;;;9.90;99.90;;;;;;5051474;27;19917;-57
2022/09/27 01:28:56;;;;;;;;;;;9.90;99.90;;;;;;5122477;27;20303;-57
2022/09/27 01:31:39;;;;;;;;;;;9.90;99.90;;;;;;5118002;27;19911;-57
2022/09/27 01:34:23;;;;;;;;;;;9.90;99.90;;;;;;5123139;27;19912;-57
2022/09/27 01:37:09;;;;;;;;;;;9.90;99.90;;;;;;5086725;27;20007;-57
2022/09/27 01:39:56;;;;;;;;;;;10.00;99.90;;;;;;5120057;27;19924;-55
2022/09/27 01:42:47;;;;;;;;;;;10.00;99.90;;;;;;5123896;27;20223;-57
2022/09/27 01:45:31;;;;;;;;;;;10.10;99.90;;;;;;5117373;27;19990;-57
2022/09/27 01:48:37;;;;;;;;;;;10.00;99.90;;;;;;5108595;27;19912;-57
2022/09/27 01:51:32;;;;;;;;;;;10.00;99.90;;;;;;5116332;27;19912;-57
2022/09/27 01:54:15;;;;;;;;;;;9.90;99.90;;;;;;5122921;27;19911;-57
2022/09/27 01:57:20;;;;;;;;;;;9.80;99.90;;;;;;5108541;27;19912;-57
2022/09/27 02:00:03;;;;;;;;;;;9.80;99.90;;;;;;5120233;27;19918;-55
2022/09/27 02:02:58;;;;;;;;;;;9.80;99.90;;;;;;5113378;27;19922;-58
2022/09/27 02:05:50;;;;;;;;;;;9.70;99.90;;;;;;5117514;27;19924;-57
2022/09/27 02:08:58;;;;;;;;;;;9.70;99.90;;;;;;5087771;27;20317;-57
2022/09/27 02:11:59;;;;;;;;;;;9.80;99.90;;;;;;5119617;27;19916;-58
2022/09/27 02:14:44;;;;;;;;;;;9.70;99.90;;;;;;5121277;27;19912;-57
2022/09/27 02:17:31;;;;;;;;;;;9.80;99.90;;;;;;5123858;27;19915;-57
2022/09/27 02:20:17;;;;;;;;;;;9.80;99.90;;;;;;5118668;27;19918;-57
2022/09/27 02:23:10;;;;;;;;;;;9.70;99.90;;;;;;5144029;27;19911;-57
2022/09/27 02:25:54;;;;;;;;;;;9.70;99.90;;;;;;5132296;27;19919;-57
2022/09/27 02:28:38;;;;;;;;;;;9.60;99.90;;;;;;5123483;27;19912;-57
2022/09/27 02:31:19;;;;;;;;;;;9.60;99.90;;;;;;5118410;27;19912;-57
2022/09/27 02:34:02;;;;;;;;;;;9.60;99.90;;;;;;5105037;27;19912;-57
2022/09/27 02:36:42;;;;;;;;;;;9.60;99.90;;;;;;5118047;27;20316;-57
2022/09/27 02:39:22;;;;;;;;;;;9.50;99.90;;;;;;5139652;27;19911;-57
2022/09/27 02:42:12;;;;;;;;;;;9.50;99.90;;;;;;5123977;27;19912;-57
2022/09/27 02:44:53;;;;;;;;;;;9.50;99.90;;;;;;5122011;27;19912;-57
2022/09/27 02:47:46;;;;;;;;;;;9.50;99.90;;;;;;5129541;22;20377;-57
2022/09/27 02:50:41;;;;;;;;;;;9.50;99.90;;;;;;5115609;27;19920;-57
2022/09/27 02:53:47;;;;;;;;;;;9.50;99.90;;;;;;5123591;27;19915;-57
2022/09/27 02:56:51;;;;;;;;;;;9.50;99.90;;;;;;5102819;27;19927;-57
2022/09/27 03:00:08;;;;;;;;;;;9.50;99.90;;;;;;5099761;27;19912;-57
2022/09/27 03:03:21;;;;;;;;;;;9.50;99.90;;;;;;5141151;27;19915;-57
2022/09/27 03:06:08;;;;;;;;;;;9.40;99.90;;;;;;5117962;27;19915;-57
2022/09/27 03:08:49;;;;;;;;;;;9.40;99.90;;;;;;5122874;27;19919;-57
2022/09/27 03:11:30;;;;;;;;;;;9.40;99.90;;;;;;5118122;27;19918;-58
2022/09/27 03:14:09;;;;;;;;;;;9.40;99.90;;;;;;5123361;27;20199;-57
2022/09/27 03:16:56;;;;;;;;;;;9.40;99.90;;;;;;5102152;27;19977;-57
2022/09/27 03:20:00;;;;;;;;;;;9.40;99.90;;;;;;5120639;27;19953;-57
2022/09/27 03:22:53;;;;;;;;;;;9.40;99.90;;;;;;5113723;27;20316;-57
2022/09/27 03:25:34;;;;;;;;;;;9.50;99.90;;;;;;5120086;27;19912;-57
2022/09/27 03:28:14;;;;;;;;;;;9.50;99.90;;;;;;5103397;27;19923;-57
2022/09/27 03:30:55;;;;;;;;;;;9.50;99.90;;;;;;5097941;27;20377;-57
2022/09/27 03:33:54;;;;;;;;;;;9.40;99.90;;;;;;5105799;27;19920;-57
2022/09/27 03:36:34;;;;;;;;;;;9.40;99.90;;;;;;5118149;27;20308;-57
2022/09/27 03:39:15;;;;;;;;;;;9.40;99.90;;;;;;5105972;27;19916;-57
2022/09/27 03:41:55;;;;;;;;;;;9.30;99.90;;;;;;5137728;27;19920;-57
2022/09/27 03:44:35;;;;;;;;;;;9.30;99.90;;;;;;5122731;27;20316;-57
2022/09/27 03:47:16;;;;;;;;;;;9.30;99.90;;;;;;5123909;27;19916;-56
2022/09/27 03:49:56;;;;;;;;;;;9.30;99.90;;;;;;5118177;27;20274;-57
2022/09/27 03:52:36;;;;;;;;;;;9.20;99.90;;;;;;5123725;27;19912;-57
2022/09/27 03:55:17;;;;;;;;;;;9.20;99.90;;;;;;5070790;28;19923;-57
2022/09/27 03:57:57;;;;;;;;;;;9.20;99.90;;;;;;5123605;27;19915;-57
2022/09/27 04:00:40;;;;;;;;;;;9.20;99.90;;;;;;5111783;27;20381;-57
2022/09/27 04:03:20;;;;;;;;;;;9.20;99.90;;;;;;5107186;27;19913;-58
2022/09/27 04:06:03;;;;;;;;;;;9.30;99.90;;;;;;5117621;27;19916;-57
2022/09/27 04:08:51;;;;;;;;;;;9.30;99.90;;;;;;5122483;27;19926;-57
2022/09/27 04:11:32;;;;;;;;;;;9.20;99.90;;;;;;5117477;27;19912;-57
2022/09/27 04:14:12;;;;;;;;;;;9.30;99.90;;;;;;5123149;27;19920;-56
2022/09/27 04:17:08;;;;;;;;;;;9.20;99.90;;;;;;5120287;27;19927;-57
2022/09/27 04:20:26;;;;;;;;;;;9.30;99.90;;;;;;5098692;27;19916;-57
2022/09/27 04:23:06;;;;;;;;;;;9.30;99.90;;;;;;5123635;27;19915;-57
2022/09/27 04:25:47;;;;;;;;;;;9.30;99.90;;;;;;5101049;27;20448;-57
2022/09/27 04:28:40;;;;;;;;;;;9.20;99.90;;;;;;5102895;27;19912;-57
2022/09/27 04:31:20;;;;;;;;;;;9.10;99.90;;;;;;5118190;27;19923;-57
2022/09/27 04:34:05;;;;;;;;;;;9.10;99.90;;;;;;5124189;27;20304;-57
2022/09/27 04:36:48;;;;;;;;;;;9.00;99.90;;;;;;5119129;27;19923;-57
2022/09/27 04:39:31;;;;;;;;;;;9.00;99.90;;;;;;5121460;27;20138;-57
2022/09/27 04:42:10;;;;;;;;;;;9.00;99.90;;;;;;5123277;27;20376;-57
2022/09/27 04:44:50;;;;;;;;;;;9.00;99.90;;;;;;5073241;27;19924;-58
2022/09/27 04:47:30;;;;;;;;;;;9.10;99.90;;;;;;5123707;27;19912;-57
2022/09/27 04:50:12;;;;;;;;;;;9.10;99.90;;;;;;5116733;27;20319;-57
2022/09/27 04:52:52;;;;;;;;;;;9.10;99.90;;;;;;5113063;27;19916;-58
2022/09/27 04:55:33;;;;;;;;;;;9.20;99.90;;;;;;5097511;27;19922;-58
2022/09/27 04:58:14;;;;;;;;;;;9.20;99.90;;;;;;5122962;27;19926;-57
2022/09/27 05:00:54;;;;;;;;;;;9.20;99.90;;;;;;5117131;27;19916;-57
2022/09/27 05:03:53;;;;;;;;;;;9.20;99.90;;;;;;5123896;27;19912;-57
2022/09/27 05:06:33;;;;;;;;;;;9.20;99.90;;;;;;5119469;27;19920;-57
2022/09/27 05:09:19;;;;;;;;;;;9.20;99.90;;;;;;5121999;27;19912;-57
2022/09/27 05:12:08;;;;;;;;;;;9.30;99.90;;;;;;5119863;27;19912;-57
2022/09/27 05:15:12;;;;;;;;;;;9.30;99.90;;;;;;5118716;27;19912;-59
2022/09/27 05:18:20;;;;;;;;;;;9.30;99.90;;;;;;5123968;27;20293;-57
2022/09/27 05:21:38;;;;;;;;;;;9.30;99.90;;;;;;5098695;27;20316;-57
2022/09/27 05:24:17;;;;;;;;;;;9.30;99.90;;;;;;5123861;27;19912;-57
2022/09/27 05:26:58;;;;;;;;;;;9.30;99.90;;;;;;5118834;27;19922;-58
2022/09/27 05:29:39;;;;;;;;;;;9.30;99.90;;;;;;5120576;27;20323;-57
2022/09/27 05:32:23;;;;;;;;;;;9.30;99.90;;;;;;5118550;27;19926;-57
2022/09/27 05:35:16;;;;;;;;;;;9.30;99.90;;;;;;5093087;27;20377;-57
2022/09/27 05:37:57;;;;;;;;;;;9.30;99.90;;;;;;5114089;27;19920;-57
2022/09/27 05:40:37;;;;;;;;;;;9.30;99.90;;;;;;5122547;27;19916;-57
2022/09/27 05:43:17;;;;;;;;;;;9.30;99.90;;;;;;5124452;27;19926;-58
2022/09/27 05:45:57;;;;;;;;;;;9.30;99.90;;;;;;5103803;27;19924;-57
2022/09/27 05:48:38;;;;;;;;;;;9.30;99.90;;;;;;5122895;27;19912;-57
2022/09/27 05:51:20;;;;;;;;;;;9.40;99.90;;;;;;5141013;27;19915;-57
2022/09/27 05:54:01;;;;;;;;;;;9.50;99.90;;;;;;5110806;27;19918;-58
2022/09/27 05:56:43;;;;;;;;;;;9.50;99.90;;;;;;5098601;27;19913;-57
2022/09/27 05:59:47;;;;;;;;;;;9.70;99.90;;;;;;5122144;27;19912;-57
2022/09/27 06:02:34;;;;;;;;;;;10.10;99.90;;;;;;5124176;27;19990;-57
2022/09/27 06:05:35;;;;;;;;;;;10.40;99.90;;;;;;5123666;27;19912;-57
2022/09/27 06:08:49;;;;;;;;;;;10.50;99.90;;;;;;5101264;27;19916;-57
2022/09/27 06:11:31;;;;;;;;;;;10.50;99.90;;;;;;5117155;27;19912;-57
2022/09/27 06:14:13;;;;;;;;;;;10.40;99.90;;;;;;5118904;27;19912;-57
2022/09/27 06:17:05;;;;;;;;;;;10.30;99.90;;;;;;5097698;27;19912;-58
2022/09/27 06:19:48;;;;;;;;;;;10.20;99.90;;;;;;5122993;27;20157;-58
2022/09/27 06:22:28;;;;;;;;;;;10.10;99.90;;;;;;5098105;27;19912;-57
2022/09/27 06:25:13;;;;;;;;;;;10.00;99.90;;;;;;5122834;27;20713;-56
2022/09/27 06:28:22;;;;;;;;;;;9.90;99.90;;;;;;5120316;27;20394;-57
2022/09/27 06:31:07;;;;;;;;;;;9.70;99.90;;;;;;5120681;27;20342;-57
2022/09/27 06:34:07;;;;;;;;;;;9.70;99.90;;;;;;5103269;27;19912;-57
2022/09/27 06:36:50;;;;;;;;;;;9.70;99.90;;;;;;5117886;27;20323;-57
2022/09/27 06:39:32;;;;;;;;;;;9.80;99.90;;;;;;5122214;27;19912;-57
2022/09/27 06:42:48;;;;;;;;;;;9.90;99.90;;;;;;5115303;27;19920;-57
2022/09/27 06:45:35;;;;;;;;;;;10.10;99.90;;;;;;5121857;27;20103;-57
2022/09/27 06:48:36;;;;;;;;;;;10.10;99.90;;;;;;5123650;27;19938;-57
2022/09/27 06:51:34;;;;;;;;;;;10.10;99.90;;;;;;5117267;27;20289;-57
2022/09/27 06:54:15;;;;;;;;;;;10.20;99.90;;;;;;5123677;27;19911;-57
2022/09/27 06:56:56;;;;;;;;;;;10.20;99.90;;;;;;5118482;27;20300;-58
2022/09/27 07:03:10;;;;;;;;;;;10.00;99.90;;;;;;5119777;27;19912;-57
2022/09/27 07:06:30;;;;;;;;;;;10.00;99.90;;;;;;5117928;27;19946;-57
2022/09/27 07:09:18;;;;;;;;;;;10.20;99.90;;;;;;5121370;27;20332;-57
2022/09/27 07:11:59;;;;;;;;;;;10.30;99.90;;;;;;5118844;27;19918;-57
2022/09/27 07:14:39;;;;;;;;;;;10.30;99.90;;;;;;5123758;27;19912;-57
2022/09/27 07:17:26;;;;;;;;;;;10.30;99.90;;;;;;5091015;27;19920;-57
2022/09/27 07:20:08;;;;;;;;;;;10.40;99.90;;;;;;5101811;27;19912;-57
2022/09/27 07:22:49;;;;;;;;;;;10.40;99.90;;;;;;5121016;27;19915;-58
2022/09/27 07:25:28;;;;;;;;;;;10.40;99.90;;;;;;5122774;27;19918;-57
2022/09/27 07:28:10;;;;;;;;;;;10.40;99.90;;;;;;5118607;27;19916;-57
2022/09/27 07:30:54;;;;;;;;;;;10.40;99.90;;;;;;5120160;27;19916;-57
2022/09/27 07:33:35;;;;;;;;;;;10.40;99.90;;;;;;5123418;27;19918;-57
2022/09/27 07:36:16;;;;;;;;;;;10.60;99.90;;;;;;5118831;27;19916;-57
2022/09/27 07:39:00;;;;;;;;;;;10.70;99.90;;;;;;5111042;27;19913;-57
2022/09/27 07:41:42;;;;;;;;;;;10.80;99.90;;;;;;5117707;27;19920;-57
2022/09/27 07:44:25;;;;;;;;;;;11.00;99.90;;;;;;5123982;27;19912;-57
2022/09/27 07:47:32;;;;;;;;;;;11.30;99.90;;;;;;5118556;27;19912;-57
2022/09/27 07:50:27;;;;;;;;;;;11.30;99.90;;;;;;5121711;27;19918;-57
2022/09/27 07:53:15;;;;;;;;;;;11.40;99.90;;;;;;5114335;27;20712;-57
2022/09/27 07:56:03;;;;;;;;;;;11.40;99.90;;;;;;5120918;27;19915;-57
2022/09/27 07:58:49;;;;;;;;;;;11.40;99.90;;;;;;5122742;27;19916;-55
2022/09/27 08:01:29;;;;;;;;;;;11.30;99.90;;;;;;5117929;27;19919;-57
2022/09/27 08:04:13;;;;;;;;;;;11.10;99.90;;;;;;5102093;27;19920;-57
2022/09/27 08:06:56;;;;;;;;;;;11.00;99.90;;;;;;5146811;27;19916;-57
2022/09/27 08:09:35;;;;;;;;;;;10.90;99.90;;;;;;5122467;27;19922;-57
2022/09/27 08:12:15;;;;;;;;;;;10.90;99.90;;;;;;5118509;27;20310;-57
2022/09/27 08:14:57;;;;;;;;;;;10.70;99.90;;;;;;5123470;27;20570;-57
2022/09/27 08:17:38;;;;;;;;;;;10.70;99.90;;;;;;5117591;27;20320;-57
2022/09/27 08:20:26;;;;;;;;;;;10.80;99.90;;;;;;5121949;27;19922;-57
2022/09/27 08:23:20;;;;;;;;;;;11.00;99.90;;;;;;5123368;27;19912;-57
2022/09/27 08:26:08;;;;;;;;;;;11.10;99.90;;;;;;5117847;27;19911;-57
2022/09/27 08:29:00;;;;;;;;;;;11.80;99.90;;;;;;5110127;27;19919;-57
2022/09/27 08:31:43;;;;;;;;;;;12.60;99.90;;;;;;5118610;27;19912;-57
2022/09/27 08:34:23;;;;;;;;;;;13.10;99.90;;;;;;5123700;27;19941;-56
2022/09/27 08:37:03;;;;;;;;;;;13.20;99.90;;;;;;5118141;27;20289;-57
2022/09/27 08:39:45;;;;;;;;;;;12.90;99.90;;;;;;5121919;27;19919;-57
2022/09/27 08:42:31;;;;;;;;;;;12.50;99.90;;;;;;5118966;27;20534;-57
2022/09/27 08:45:17;;;;;;;;;;;12.40;99.90;;;;;;5123091;27;20194;-57
2022/09/27 08:47:59;;;;;;;;;;;12.40;99.90;;;;;;5116213;27;19919;-57
2022/09/27 08:50:41;;;;;;;;;;;12.00;99.90;;;;;;5121533;27;19915;-57
2022/09/27 08:53:28;;;;;;;;;;;11.90;99.90;;;;;;5120388;27;20324;-57
2022/09/27 08:56:11;;;;;;;;;;;11.60;99.90;;;;;;5120292;27;19918;-57
2022/09/27 08:58:57;;;;;;;;;;;11.50;99.90;;;;;;5090557;27;20384;-57
2022/09/27 09:01:43;;;;;;;;;;;11.70;99.90;;;;;;5118962;27;19916;-58
2022/09/27 09:04:32;;;;;;;;;;;12.50;99.90;;;;;;5124099;27;19918;-57
2022/09/27 09:07:19;;;;;;;;;;;13.10;99.90;;;;;;5117255;27;19922;-57
2022/09/27 09:10:03;;;;;;;;;;;13.70;99.90;;;;;;5103729;27;19918;-57
2022/09/27 09:13:01;;;;;;;;;;;14.20;99.90;;;;;;5124131;27;19918;-57
2022/09/27 09:15:55;;;;;;;;;;;14.40;99.90;;;;;;5123212;27;20308;-57
2022/09/27 09:18:45;;;;;;;;;;;14.20;99.90;;;;;;5123135;27;19912;-57
2022/09/27 09:21:48;;;;;;;;;;;14.20;99.90;;;;;;5124267;27;20483;-57
2022/09/27 09:24:39;;;;;;;;;;;13.80;99.90;;;;;;5104134;27;19914;-56
2022/09/27 09:27:24;;;;;;;;;;;13.40;99.90;;;;;;5109168;27;19919;-56
2022/09/27 09:30:16;;;;;;;;;;;12.90;99.90;;;;;;5123824;27;19918;-57
2022/09/27 09:33:10;;;;;;;;;;;12.60;99.90;;;;;;5124663;27;20194;-56
2022/09/27 09:35:53;;;;;;;;;;;12.40;99.90;;;;;;5139401;27;19916;-56
2022/09/27 09:38:37;;;;;;;;;;;12.90;99.90;;;;;;5145034;27;19911;-56
2022/09/27 09:41:19;;;;;;;;;;;13.30;99.90;;;;;;5124777;27;20392;-56
2022/09/27 09:44:02;;;;;;;;;;;13.70;99.90;;;;;;5124035;27;20265;-56
2022/09/27 09:46:44;;;;;;;;;;;14.10;99.90;;;;;;5124537;27;19912;-56
2022/09/27 09:49:27;;;;;;;;;;;14.00;99.90;;;;;;5123604;27;19918;-58
2022/09/27 09:52:12;;;;;;;;;;;13.60;99.90;;;;;;5104116;27;19913;-57
2022/09/27 09:54:55;;;;;;;;;;;13.50;99.90;;;;;;5124793;27;19912;-56
2022/09/27 09:57:39;;;;;;;;;;;13.80;99.90;;;;;;5109349;27;20211;-56
2022/09/27 10:00:21;;;;;;;;;;;14.40;99.90;;;;;;5143968;27;19937;-56
2022/09/27 10:03:04;;;;;;;;;;;14.80;99.90;;;;;;5124991;27;19918;-56
2022/09/27 10:05:46;;;;;;;;;;;14.40;99.90;;;;;;5123813;27;20335;-56
2022/09/27 10:08:27;;;;;;;;;;;14.00;99.90;;;;;;5124187;27;19912;-56
2022/09/27 10:11:24;;;;;;;;;;;13.70;99.90;;;;;;5124540;27;19916;-56
2022/09/27 10:14:32;;;;;;;;;;;14.10;99.90;;;;;;5083594;28;20085;-56
2022/09/27 10:17:18;;;;;;;;;;;14.70;99.90;;;;;;5108880;27;19918;-56
2022/09/27 10:20:02;;;;;;;;;;;15.60;99.90;;;;;;5102079;27;19919;-56
2022/09/27 10:22:44;;;;;;;;;;;16.00;99.90;;;;;;5124089;27;19912;-56
2022/09/27 10:25:52;;;;;;;;;;;16.10;99.90;;;;;;5124319;27;19918;-56
2022/09/27 10:28:55;;;;;;;;;;;15.50;99.90;;;;;;5103109;27;19918;-56
2022/09/27 10:31:47;;;;;;;;;;;15.60;99.90;;;;;;5124883;27;20442;-56
2022/09/27 10:34:33;;;;;;;;;;;15.40;99.90;;;;;;5124442;27;19912;-56
2022/09/27 10:37:18;;;;;;;;;;;15.20;99.90;;;;;;5111513;27;20500;-56
2022/09/27 10:40:24;;;;;;;;;;;15.10;99.90;;;;;;5123579;27;20391;-56
2022/09/27 10:43:21;;;;;;;;;;;15.20;99.90;;;;;;5124419;27;19947;-56
2022/09/27 10:46:13;;;;;;;;;;;15.00;99.90;;;;;;5121725;27;19912;-56
2022/09/27 10:49:13;;;;;;;;;;;14.90;99.90;;;;;;5123768;27;19916;-56
2022/09/27 10:51:55;;;;;;;;;;;15.00;99.90;;;;;;5124923;27;19911;-56
2022/09/27 10:54:36;;;;;;;;;;;15.10;99.90;;;;;;5103620;27;20294;-56
2022/09/27 10:57:19;;;;;;;;;;;14.90;99.90;;;;;;5091130;27;19917;-56
2022/09/27 11:00:02;;;;;;;;;;;14.20;99.90;;;;;;5123113;27;19916;-56
2022/09/27 11:02:43;;;;;;;;;;;13.90;99.90;;;;;;5104606;27;19912;-56
2022/09/27 11:05:33;;;;;;;;;;;13.90;99.90;;;;;;5124266;27;19922;-56
2022/09/27 11:08:28;;;;;;;;;;;14.00;99.90;;;;;;5166038;27;19911;-56
2022/09/27 11:11:23;;;;;;;;;;;14.40;99.90;;;;;;5124534;27;19942;-56
2022/09/27 11:14:06;;;;;;;;;;;14.60;99.90;;;;;;5124782;27;20315;-56
2022/09/27 11:16:56;;;;;;;;;;;14.80;99.90;;;;;;5113480;27;19923;-56
2022/09/27 11:19:47;;;;;;;;;;;15.00;99.90;;;;;;5122116;27;19920;-56
2022/09/27 11:22:41;;;;;;;;;;;15.70;99.90;;;;;;5104020;27;19916;-56
2022/09/27 11:25:32;;;;;;;;;;;16.30;99.90;;;;;;5124956;27;19922;-57
2022/09/27 11:28:19;;;;;;;;;;;16.70;99.90;;;;;;5140225;27;19912;-57
2022/09/27 11:31:02;;;;;;;;;;;16.90;99.90;;;;;;5102986;27;20374;-56
2022/09/27 11:34:00;;;;;;;;;;;16.70;99.90;;;;;;5124538;27;19911;-57
2022/09/27 11:36:52;;;;;;;;;;;16.90;99.90;;;;;;5116775;27;19912;-57
2022/09/27 11:39:38;;;;;;;;;;;16.90;99.90;;;;;;5103204;27;20482;-56
2022/09/27 11:42:32;;;;;;;;;;;16.50;99.90;;;;;;5124799;27;19916;-57
2022/09/27 11:45:18;;;;;;;;;;;16.00;99.90;;;;;;5123970;27;19926;-58
2022/09/27 11:48:04;;;;;;;;;;;16.00;99.90;;;;;;5104166;27;19922;-57
2022/09/27 11:50:50;;;;;;;;;;;15.50;99.90;;;;;;5123901;27;19912;-56
2022/09/27 11:53:40;;;;;;;;;;;14.90;99.90;;;;;;5083696;28;20378;-57
2022/09/27 11:56:33;;;;;;;;;;;14.60;99.90;;;;;;5115502;27;19920;-56
2022/09/27 11:59:31;;;;;;;;;;;14.10;99.90;;;;;;5122410;27;19911;-56
2022/09/27 12:02:19;;;;;;;;;;;13.20;99.90;;;;;;5103213;27;19923;-56
2022/09/27 12:05:10;;;;;;;;;;;12.30;99.90;;;;;;5124595;27;19915;-56
2022/09/27 12:08:05;;;;;;;;;;;12.20;99.90;;;;;;5083186;28;19927;-57
2022/09/27 12:10:51;;;;;;;;;;;11.80;99.90;;;;;;5123753;27;19912;-56
2022/09/27 12:13:34;;;;;;;;;;;11.40;99.90;;;;;;5103946;27;19916;-56
2022/09/27 12:16:15;;;;;;;;;;;11.00;99.90;;;;;;5081377;28;19917;-56
2022/09/27 12:18:56;;;;;;;;;;;11.00;99.90;;;;;;5124075;27;20383;-56
2022/09/27 12:21:59;;;;;;;;;;;11.00;99.90;;;;;;5104303;27;19927;-56
2022/09/27 12:24:39;;;;;;;;;;;11.20;99.90;;;;;;5103396;27;19930;-57
2022/09/27 12:27:40;;;;;;;;;;;11.70;99.90;;;;;;5085394;27;20336;-56
2022/09/27 12:30:25;;;;;;;;;;;12.00;99.90;;;;;;5102274;27;19920;-56
2022/09/27 12:33:07;;;;;;;;;;;12.10;99.90;;;;;;5096095;27;19974;-56
2022/09/27 12:35:51;;;;;;;;;;;12.40;99.90;;;;;;5129220;27;19911;-56
2022/09/27 12:38:34;;;;;;;;;;;12.60;99.90;;;;;;5123376;27;19920;-56
2022/09/27 12:41:18;;;;;;;;;;;12.90;99.90;;;;;;5093725;27;20366;-56
2022/09/27 12:44:13;;;;;;;;;;;13.10;99.90;;;;;;5101170;27;19946;-56
2022/09/27 12:47:06;;;;;;;;;;;13.40;99.90;;;;;;5092824;27;19970;-56
2022/09/27 12:49:52;;;;;;;;;;;13.60;99.90;;;;;;5144958;27;19919;-56
2022/09/27 12:52:36;;;;;;;;;;;13.90;99.90;;;;;;5103612;27;19920;-56
2022/09/27 12:55:36;;;;;;;;;;;14.40;99.90;;;;;;5100542;27;19919;-56
2022/09/27 12:58:33;;;;;;;;;;;14.90;99.90;;;;;;5089774;27;19912;-56
2022/09/27 13:01:19;;;;;;;;;;;15.20;99.90;;;;;;5103332;27;19926;-56
2022/09/27 13:04:14;;;;;;;;;;;15.70;99.90;;;;;;5124430;27;19915;-56
2022/09/27 13:07:09;;;;;;;;;;;15.80;99.90;;;;;;5093843;27;19931;-56
2022/09/27 13:10:06;;;;;;;;;;;15.90;99.90;;;;;;5103220;27;19950;-56
2022/09/27 13:12:52;;;;;;;;;;;15.10;99.90;;;;;;5104025;27;19953;-56
2022/09/27 13:15:34;;;;;;;;;;;14.10;99.90;;;;;;5103393;27;20328;-56
2022/09/27 13:18:33;;;;;;;;;;;13.90;99.90;;;;;;5104035;27;19912;-56
2022/09/27 13:21:34;;;;;;;;;;;14.00;99.90;;;;;;5124889;27;19919;-56
2022/09/27 13:24:39;;;;;;;;;;;15.10;99.90;;;;;;5103336;27;19954;-56
2022/09/27 13:27:39;;;;;;;;;;;15.90;99.90;;;;;;5093512;27;19913;-56
2022/09/27 13:30:48;;;;;;;;;;;16.20;99.90;;;;;;5102269;27;19943;-56
2022/09/27 13:33:42;;;;;;;;;;;15.80;99.90;;;;;;5138082;27;19912;-56
2022/09/27 13:36:29;;;;;;;;;;;15.60;99.90;;;;;;5099886;27;20377;-56
2022/09/27 13:39:21;;;;;;;;;;;15.60;99.90;;;;;;5131954;27;19912;-56
2022/09/27 13:42:37;;;;;;;;;;;15.80;99.90;;;;;;5124348;27;19918;-56
2022/09/27 13:45:20;;;;;;;;;;;15.80;99.90;;;;;;5118350;27;19926;-56
2022/09/27 13:48:06;;;;;;;;;;;15.30;99.90;;;;;;5088687;27;19945;-57
2022/09/27 13:50:52;;;;;;;;;;;15.00;99.90;;;;;;5121717;27;19915;-56
2022/09/27 13:53:35;;;;;;;;;;;14.50;99.90;;;;;;5123144;27;19919;-56
2022/09/27 13:56:28;;;;;;;;;;;14.50;99.90;;;;;;5102268;27;19957;-57
2022/09/27 13:59:14;;;;;;;;;;;14.50;99.90;;;;;;5163705;27;20351;-56
2022/09/27 14:02:00;;;;;;;;;;;14.20;99.90;;;;;;5074779;28;20169;-56
2022/09/27 14:04:48;;;;;;;;;;;13.70;99.90;;;;;;5124705;27;19924;-56
2022/09/27 14:07:35;;;;;;;;;;;13.30;99.90;;;;;;5105586;27;19927;-55
2022/09/27 14:10:17;;;;;;;;;;;13.10;99.90;;;;;;5122110;27;20273;-57
2022/09/27 14:13:01;;;;;;;;;;;13.20;99.90;;;;;;5123342;27;19971;-56
2022/09/27 14:15:43;;;;;;;;;;;13.30;99.90;;;;;;5124524;27;19912;-56
2022/09/27 14:18:25;;;;;;;;;;;13.20;99.90;;;;;;5112199;27;19916;-56
2022/09/27 14:21:16;;;;;;;;;;;13.20;99.90;;;;;;5123647;27;19934;-57
2022/09/27 14:24:25;;;;;;;;;;;13.30;99.90;;;;;;5124963;27;19911;-56
2022/09/27 14:27:13;;;;;;;;;;;13.10;99.90;;;;;;5050002;28;20309;-56
2022/09/27 14:29:55;;;;;;;;;;;13.10;99.90;;;;;;5134754;27;20217;-56
2022/09/27 14:32:47;;;;;;;;;;;12.90;99.90;;;;;;5113055;27;19912;-56
2022/09/27 14:38:31;;;;;;;;;;;12.50;99.90;;;;;;5123367;27;19916;-56
2022/09/27 14:41:11;;;;;;;;;;;12.50;99.90;;;;;;5102631;27;19926;-56
2022/09/27 14:43:51;;;;;;;;;;;12.40;99.90;;;;;;5104557;27;19912;-56
2022/09/27 14:46:31;;;;;;;;;;;12.10;99.90;;;;;;5152488;22;20872;-54
2022/09/27 14:49:18;;;;;;;;;;;11.70;99.90;;;;;;5112881;27;19920;-58
2022/09/27 14:51:58;;;;;;;;;;;11.20;99.90;;;;;;5078708;27;20733;-57
2022/09/27 14:54:39;;;;;;;;;;;10.80;99.90;;;;;;5102581;27;19912;-57
2022/09/27 14:57:18;;;;;;;;;;;10.40;99.90;;;;;;5098193;27;19931;-57
2022/09/27 14:59:59;;;;;;;;;;;10.20;99.90;;;;;;5102881;27;19912;-56
2022/09/27 15:02:40;;;;;;;;;;;10.20;99.90;;;;;;5103498;27;19943;-57
2022/09/27 15:05:22;;;;;;;;;;;10.20;99.90;;;;;;5126200;27;19912;-56
2022/09/27 15:08:04;;;;;;;;;;;10.20;99.90;;;;;;5077089;28;19920;-57
2022/09/27 15:10:45;;;;;;;;;;;10.30;99.90;;;;;;5102648;27;19919;-57
2022/09/27 15:13:26;;;;;;;;;;;10.40;99.90;;;;;;5124412;27;20161;-55
2022/09/27 15:16:09;;;;;;;;;;;10.50;99.90;;;;;;5104149;27;20327;-57
2022/09/27 15:18:58;;;;;;;;;;;10.50;99.90;;;;;;5103569;27;20324;-57
2022/09/27 15:21:37;;;;;;;;;;;10.50;99.90;;;;;;5123896;27;19922;-56
2022/09/27 15:24:34;;;;;;;;;;;10.40;99.90;;;;;;5104793;27;19912;-56
2022/09/27 15:27:16;;;;;;;;;;;10.40;99.90;;;;;;5160102;27;19925;-56
2022/09/27 15:29:57;;;;;;;;;;;10.40;99.90;;;;;;5094492;27;20586;-57
2022/09/27 15:32:37;;;;;;;;;;;10.50;99.90;;;;;;5082150;28;19912;-56
2022/09/27 15:35:20;;;;;;;;;;;10.50;99.90;;;;;;5102450;27;19916;-54
2022/09/27 15:38:17;;;;;;;;;;;10.60;99.90;;;;;;5067857;28;19932;-56
2022/09/27 15:40:59;;;;;;;;;;;10.60;99.90;;;;;;5103525;27;20365;-55
2022/09/27 15:43:44;;;;;;;;;;;10.70;99.90;;;;;;5103965;27;19946;-55
2022/09/27 15:46:29;;;;;;;;;;;10.70;99.90;;;;;;5101540;27;20315;-56
2022/09/27 15:49:22;;;;;;;;;;;10.80;99.90;;;;;;5103126;27;19916;-56
2022/09/27 15:52:04;;;;;;;;;;;10.80;99.90;;;;;;5104213;27;20180;-57
2022/09/27 15:54:44;;;;;;;;;;;10.80;99.90;;;;;;5124421;27;19912;-56
2022/09/27 15:57:26;;;;;;;;;;;10.80;99.90;;;;;;5101479;27;19953;-57
2022/09/27 16:00:06;;;;;;;;;;;10.80;99.90;;;;;;5096385;27;19926;-56
2022/09/27 16:02:52;;;;;;;;;;;10.80;99.90;;;;;;5097170;27;19920;-57
2022/09/27 16:05:33;;;;;;;;;;;10.80;99.90;;;;;;5124835;27;19916;-54
2022/09/27 16:08:13;;;;;;;;;;;10.70;99.90;;;;;;5103143;27;19945;-55
2022/09/27 16:10:54;;;;;;;;;;;10.70;99.90;;;;;;5097853;27;19912;-56
2022/09/27 16:13:34;;;;;;;;;;;10.70;99.90;;;;;;5070091;28;19917;-54
2022/09/27 16:16:16;;;;;;;;;;;10.60;99.90;;;;;;5124485;27;19916;-57
2022/09/27 16:18:57;;;;;;;;;;;10.40;99.90;;;;;;5124660;27;19911;-55
2022/09/27 16:21:37;;;;;;;;;;;10.30;99.90;;;;;;5105014;27;19945;-56
2022/09/27 16:24:18;;;;;;;;;;;10.10;99.90;;;;;;5104535;27;19924;-56